« Back
NWS Peachtree City, Ga » Text Product » CSG Terminal Aerodrome Forecast


Printer-friendly Version
Current Version              Previous Versions:   1  2  3  4  5  6  7  8  9  

Terminal Aerodrome Forecast

154
FTUS42 KFFC 012300
TAFCSG
TAF
KCSG 012320Z 0200/0224 VRB05KT 6SM -TSRA SCT050CB BKN080
      TEMPO 0200/0202 VRB15G30KT 3SM TSRA BKN045CB
     FM020200 00000KT P6SM FEW050 SCT150 SCT250
     FM021400 31004KT P6SM SCT030 SCT150
     FM021800 28005KT P6SM SCT045 SCT150 PROB30 0219/0223 VRB15G30KT
      5SM TSRA BKN040CB=

USA.gov is the U.S. government's official web portal to all federal, state and local government web resources and services.